Time;durP1;ratioP1;P1;durP2;ratioP2;P2;SDS_P1;SDS_P2;PMS_P1;PMS_P2;Temp;Humidity;BMP_temperature;BMP_pressure;BME280_temperature;BME280_humidity;BME280_pressure;Samples;Min_cycle;Max_cycle;Signal;HPM_P1;HPM_P2
2023/04/24 00:00:31;;;;;;;3.63;1.40;;;;;;;10.52;100.00;98880.81;5098158;28;20307;-77
2023/04/24 00:02:57;;;;;;;2.73;1.53;;;;;;;10.39;100.00;98873.16;5099207;28;20183;-77
2023/04/24 00:05:23;;;;;;;3.80;1.20;;;;;;;10.36;100.00;98872.53;5104954;28;20221;-77
2023/04/24 00:07:52;;;;;;;2.47;1.57;;;;;;;10.48;100.00;98872.50;5101217;28;20257;-78
2023/04/24 00:10:18;;;;;;;1.63;1.27;;;;;;;10.55;100.00;98872.03;5102959;27;20239;-77
2023/04/24 00:12:43;;;;;;;2.70;1.50;;;;;;;10.56;100.00;98864.22;5124733;28;20269;-76
2023/04/24 00:15:09;;;;;;;1.63;1.30;;;;;;;10.51;100.00;98868.88;5097933;28;20222;-77
2023/04/24 00:17:34;;;;;;;1.47;1.20;;;;;;;10.46;100.00;98870.97;5091892;28;20180;-76
2023/04/24 00:20:00;;;;;;;1.43;1.33;;;;;;;10.28;100.00;98878.25;5099684;28;20625;-77
2023/04/24 00:22:27;;;;;;;5.70;1.40;;;;;;;10.31;100.00;98866.00;5083308;28;20236;-76
2023/04/24 00:24:52;;;;;;;1.37;1.27;;;;;;;10.29;100.00;98856.75;5086211;28;20176;-77
2023/04/24 00:27:17;;;;;;;3.80;1.30;;;;;;;10.39;100.00;98862.88;5097173;28;20248;-77
2023/04/24 00:29:43;;;;;;;3.20;1.53;;;;;;;10.38;100.00;98861.25;5110493;28;20210;-77
2023/04/24 00:32:08;;;;;;;1.67;1.13;;;;;;;10.38;100.00;98857.84;5116128;27;20222;-77
2023/04/24 00:34:33;;;;;;;1.93;1.20;;;;;;;10.22;100.00;98851.25;5110766;28;20515;-76
2023/04/24 00:36:59;;;;;;;2.23;1.43;;;;;;;10.11;100.00;98839.19;5109207;28;20679;-77
2023/04/24 00:39:24;;;;;;;2.77;1.20;;;;;;;10.03;100.00;98851.75;5109659;28;20702;-77
2023/04/24 00:41:50;;;;;;;1.93;1.50;;;;;;;10.00;100.00;98849.41;5113848;27;20582;-76
2023/04/24 00:44:16;;;;;;;1.60;1.50;;;;;;;9.85;100.00;98849.59;5109880;28;20202;-76
2023/04/24 00:46:42;;;;;;;2.03;1.10;;;;;;;9.81;100.00;98845.59;5108904;28;20733;-76
2023/04/24 00:49:07;;;;;;;1.90;1.50;;;;;;;9.94;100.00;98849.88;5109466;28;20244;-76
2023/04/24 00:51:34;;;;;;;2.40;1.53;;;;;;;9.95;100.00;98838.66;5102437;28;20214;-77
2023/04/24 00:54:00;;;;;;;1.77;1.43;;;;;;;9.81;100.00;98840.47;5109225;28;20195;-77
2023/04/24 00:56:25;;;;;;;4.13;1.87;;;;;;;9.77;100.00;98836.47;5114518;28;20179;-77
2023/04/24 00:58:51;;;;;;;1.63;1.30;;;;;;;9.73;100.00;98832.47;5113400;28;20262;-77
2023/04/24 01:01:18;;;;;;;1.53;1.23;;;;;;;9.75;100.00;98824.66;5113653;27;20304;-76
2023/04/24 01:03:43;;;;;;;1.93;1.20;;;;;;;9.79;100.00;98823.53;5120268;27;20203;-77
2023/04/24 01:06:10;;;;;;;2.00;1.40;;;;;;;9.73;100.00;98817.06;5112719;28;20271;-78
2023/04/24 01:08:36;;;;;;;3.77;1.40;;;;;;;9.69;100.00;98829.31;5085078;28;20781;-77
2023/04/24 01:11:04;;;;;;;5.90;1.50;;;;;;;9.75;100.00;98822.09;5086630;28;20248;-77
2023/04/24 01:13:30;;;;;;;2.00;1.60;;;;;;;9.78;100.00;98820.13;5102721;28;20198;-77
2023/04/24 01:15:55;;;;;;;3.70;1.50;;;;;;;9.91;100.00;98825.22;5094243;28;20180;-77
2023/04/24 01:18:21;;;;;;;2.63;1.60;;;;;;;10.02;100.00;98824.41;5093509;28;20221;-76
2023/04/24 01:20:52;;;;;;;3.07;1.43;;;;;;;10.22;100.00;98820.41;5104629;27;20572;-77
2023/04/24 01:23:18;;;;;;;3.27;1.40;;;;;;;10.28;100.00;98817.41;5113442;28;20277;-77
2023/04/24 01:25:44;;;;;;;1.93;1.20;;;;;;;10.38;100.00;98821.88;5113703;28;20168;-77
2023/04/24 01:28:09;;;;;;;4.13;1.50;;;;;;;10.36;100.00;98814.28;5112889;28;20207;-77
2023/04/24 01:30:35;;;;;;;3.60;1.20;;;;;;;10.41;100.00;98829.38;5107683;27;20219;-76
2023/04/24 01:33:01;;;;;;;2.30;1.50;;;;;;;10.46;100.00;98824.69;5126110;27;20531;-77
2023/04/24 01:35:26;;;;;;;3.20;1.70;;;;;;;10.44;100.00;98823.97;5113603;28;20532;-78
2023/04/24 01:37:51;;;;;;;4.10;1.40;;;;;;;10.42;100.00;98828.41;5112808;28;20174;-77
2023/04/24 01:40:17;;;;;;;2.47;1.10;;;;;;;10.37;100.00;98828.78;5104397;27;20193;-77
2023/04/24 01:42:42;;;;;;;2.37;1.30;;;;;;;10.39;100.00;98821.75;5113194;28;20659;-77
2023/04/24 01:45:10;;;;;;;1.87;1.20;;;;;;;10.31;100.00;98824.88;5112413;28;20574;-77
2023/04/24 01:47:36;;;;;;;4.83;1.30;;;;;;;10.22;100.00;98832.44;5112903;28;20288;-77
2023/04/24 01:50:02;;;;;;;1.40;1.27;;;;;;;10.36;100.00;98829.69;5112365;28;20575;-78
2023/04/24 01:52:28;;;;;;;1.63;1.50;;;;;;;10.42;100.00;98836.13;5100439;28;20223;-78
2023/04/24 01:54:55;;;;;;;2.13;1.27;;;;;;;10.42;100.00;98834.38;5112622;28;20246;-78
2023/04/24 01:57:21;;;;;;;4.43;1.97;;;;;;;10.41;100.00;98837.09;5092867;28;20674;-76
2023/04/24 01:59:46;;;;;;;3.13;1.43;;;;;;;10.36;100.00;98849.41;5092652;28;20199;-76
2023/04/24 02:02:11;;;;;;;2.43;1.43;;;;;;;10.27;100.00;98846.59;5083899;28;20251;-76
2023/04/24 02:04:36;;;;;;;6.30;1.50;;;;;;;10.31;100.00;98849.75;5093849;28;20208;-77
2023/04/24 02:07:02;;;;;;;3.03;1.90;;;;;;;10.24;100.00;98846.81;5092261;28;20287;-77
2023/04/24 02:09:27;;;;;;;2.33;1.63;;;;;;;10.11;100.00;98839.19;5092673;28;20701;-77
2023/04/24 02:11:52;;;;;;;3.73;1.50;;;;;;;10.11;100.00;98840.91;5084970;28;20230;-77
2023/04/24 02:14:18;;;;;;;4.30;1.60;;;;;;;10.20;100.00;98850.53;5110970;28;20198;-77
2023/04/24 02:16:43;;;;;;;1.97;1.40;;;;;;;10.24;100.00;98851.94;5111960;28;20257;-77
2023/04/24 02:19:09;;;;;;;2.40;1.33;;;;;;;10.22;100.00;98851.25;5113258;28;20246;-77
2023/04/24 02:21:34;;;;;;;3.93;1.40;;;;;;;10.23;100.00;98849.50;5115497;27;20218;-77
2023/04/24 02:23:59;;;;;;;1.63;1.50;;;;;;;10.30;100.00;98853.25;5112021;28;20196;-77
2023/04/24 02:26:25;;;;;;;3.67;1.40;;;;;;;10.38;100.00;98850.97;5100124;28;20184;-78
2023/04/24 02:28:50;;;;;;;3.27;1.50;;;;;;;10.28;100.00;98849.97;5110401;28;20725;-78
2023/04/24 02:31:16;;;;;;;1.50;1.30;;;;;;;10.27;100.00;98853.47;5104421;27;20451;-77
2023/04/24 02:33:41;;;;;;;4.30;1.50;;;;;;;10.26;100.00;98864.69;5119228;27;20202;-76
2023/04/24 02:36:06;;;;;;;2.07;1.50;;;;;;;10.29;100.00;98859.31;5106351;28;20233;-76
2023/04/24 02:38:32;;;;;;;3.13;1.67;;;;;;;10.25;100.00;98858.72;5091982;28;20172;-77
2023/04/24 02:40:57;;;;;;;2.23;1.43;;;;;;;10.32;100.00;98862.50;5084457;28;20219;-78
2023/04/24 02:43:23;;;;;;;1.63;1.23;;;;;;;10.31;100.00;98866.00;5091929;28;20180;-78
2023/04/24 02:45:48;;;;;;;1.30;1.20;;;;;;;10.23;100.00;98870.06;5091737;28;20630;-77
2023/04/24 02:48:14;;;;;;;2.47;1.40;;;;;;;10.36;100.00;98869.97;5091552;28;20253;-78
2023/04/24 02:50:40;;;;;;;3.07;1.20;;;;;;;10.41;100.00;98865.34;5084190;28;20227;-78
2023/04/24 02:53:05;;;;;;;1.90;1.40;;;;;;;10.45;100.00;98870.13;5091738;28;20176;-78
2023/04/24 02:55:31;;;;;;;1.43;1.30;;;;;;;10.53;100.00;98868.75;5092196;28;20638;-78
2023/04/24 02:57:56;;;;;;;3.20;1.43;;;;;;;10.50;100.00;98864.66;5092020;28;20871;-78
2023/04/24 03:00:21;;;;;;;1.63;1.27;;;;;;;10.46;100.00;98870.97;5070757;28;20225;-77
2023/04/24 03:02:47;;;;;;;1.27;1.17;;;;;;;10.37;100.00;98866.50;5076869;28;20180;-77
2023/04/24 03:05:12;;;;;;;3.20;1.40;;;;;;;10.51;100.00;98875.78;5090457;28;20222;-78
2023/04/24 03:07:37;;;;;;;1.30;1.20;;;;;;;10.45;100.00;98869.34;5091334;28;20231;-78
2023/04/24 03:10:05;;;;;;;2.17;1.30;;;;;;;10.51;100.00;98880.94;5086615;27;20184;-77
2023/04/24 03:12:30;;;;;;;2.10;1.20;;;;;;;10.57;100.00;98883.03;5111719;28;20191;-78
2023/04/24 03:14:56;;;;;;;2.87;1.40;;;;;;;10.58;100.00;98887.22;5101979;28;20180;-77
2023/04/24 03:17:21;;;;;;;6.37;1.63;;;;;;;10.60;100.00;98885.38;5080802;28;20317;-77
2023/04/24 03:19:46;;;;;;;3.63;1.83;;;;;;;10.59;100.00;98882.00;5091346;28;20184;-77
2023/04/24 03:22:12;;;;;;;2.27;1.30;;;;;;;10.46;100.00;98883.84;5082329;28;20700;-77
2023/04/24 03:24:37;;;;;;;1.30;1.20;;;;;;;10.40;100.00;98884.28;5090816;28;20638;-77
2023/04/24 03:27:02;;;;;;;2.53;1.17;;;;;;;10.36;100.00;98883.69;5090990;28;20634;-77
2023/04/24 03:29:28;;;;;;;2.00;1.43;;;;;;;10.47;100.00;98888.84;5091345;28;20184;-76
2023/04/24 03:31:53;;;;;;;1.60;1.20;;;;;;;10.54;100.00;98896.13;5047394;28;20389;-77
2023/04/24 03:34:18;;;;;;;1.53;1.17;;;;;;;10.53;100.00;98895.31;5089606;28;20531;-77
2023/04/24 03:36:44;;;;;;;1.50;1.40;;;;;;;10.65;100.00;98902.13;5092691;28;20201;-77
2023/04/24 03:39:09;;;;;;;2.33;1.20;;;;;;;10.56;100.00;98907.13;5091597;28;20175;-77
2023/04/24 03:41:35;;;;;;;1.83;1.20;;;;;;;10.59;100.00;98906.88;5094316;28;20234;-78
2023/04/24 03:44:00;;;;;;;1.53;1.37;;;;;;;10.63;100.00;98911.69;5091143;28;20569;-76
2023/04/24 03:46:25;;;;;;;2.30;1.57;;;;;;;10.49;100.00;98909.31;5091157;28;20202;-77
2023/04/24 03:48:51;;;;;;;2.13;1.50;;;;;;;10.34;100.00;98911.22;5090892;28;20180;-77
2023/04/24 03:51:16;;;;;;;2.33;1.53;;;;;;;10.33;100.00;98917.28;5083881;28;20231;-76
2023/04/24 03:53:41;;;;;;;3.23;1.50;;;;;;;10.29;100.00;98923.56;5091153;28;20214;-77
2023/04/24 03:56:07;;;;;;;1.57;1.47;;;;;;;10.37;100.00;98933.34;5091702;28;20191;-77
2023/04/24 03:58:32;;;;;;;2.73;1.67;;;;;;;10.29;100.00;98923.56;5091313;28;20300;-77
2023/04/24 04:00:58;;;;;;;2.63;1.40;;;;;;;10.31;100.00;98926.88;5084064;28;20230;-79
2023/04/24 04:03:23;;;;;;;2.40;1.50;;;;;;;10.24;100.00;98923.09;5091041;28;20717;-77
2023/04/24 04:05:49;;;;;;;4.53;2.27;;;;;;;10.06;100.00;98938.06;5091382;28;20261;-79
2023/04/24 04:08:14;;;;;;;1.60;1.50;;;;;;;9.98;100.00;98926.56;4934454;28;20702;-78
2023/04/24 04:10:40;;;;;;;1.50;1.40;;;;;;;9.82;100.00;98931.16;5055305;28;20717;-78
2023/04/24 04:13:06;;;;;;;1.83;1.73;;;;;;;9.73;100.00;98932.63;5070235;28;20172;-78
2023/04/24 04:15:31;;;;;;;1.87;1.77;;;;;;;9.68;100.00;98938.06;5068066;28;20192;-79
2023/04/24 04:17:57;;;;;;;2.57;1.63;;;;;;;9.64;100.00;98931.53;5069958;28;20176;-79
2023/04/24 04:20:22;;;;;;;2.00;1.80;;;;;;;9.51;100.00;98943.56;5063529;28;20232;-77
2023/04/24 04:22:48;;;;;;;3.53;1.93;;;;;;;9.23;100.00;98945.44;5070025;28;20181;-78
2023/04/24 04:25:13;;;;;;;2.10;1.97;;;;;;;9.05;100.00;98944.94;5082752;28;20649;-77
2023/04/24 04:27:41;;;;;;;2.17;1.87;;;;;;;9.09;100.00;98941.25;5069968;28;20197;-77
2023/04/24 04:30:08;;;;;;;2.50;2.30;;;;;;;9.00;100.00;98947.78;5062293;28;20182;-77
2023/04/24 04:32:34;;;;;;;2.30;2.03;;;;;;;8.88;100.00;98941.75;5074252;28;20191;-76
2023/04/24 04:35:03;;;;;;;2.30;2.10;;;;;;;8.75;100.00;98952.91;5073101;28;20681;-75
2023/04/24 04:37:29;;;;;;;2.63;2.23;;;;;;;8.76;100.00;98959.66;5074085;28;20177;-76
2023/04/24 04:39:55;;;;;;;3.53;2.50;;;;;;;8.58;100.00;98954.81;5074947;28;20267;-75
2023/04/24 04:42:20;;;;;;;3.43;2.70;;;;;;;8.45;100.00;98959.09;5064188;28;20295;-76
2023/04/24 04:44:46;;;;;;;5.10;4.00;;;;;;;8.48;100.00;98959.72;5072930;28;20868;-76
2023/04/24 04:47:11;;;;;;;2.57;2.27;;;;;;;8.45;100.00;98959.88;5073563;28;20527;-76
2023/04/24 04:49:38;;;;;;;2.20;1.90;;;;;;;8.46;100.00;98965.81;5073331;28;20567;-76
2023/04/24 04:52:04;;;;;;;3.37;2.57;;;;;;;8.43;100.00;98971.16;5066201;28;20244;-78
2023/04/24 04:54:29;;;;;;;2.80;2.60;;;;;;;8.35;100.00;98976.78;5085209;28;21018;-77
2023/04/24 04:56:55;;;;;;;2.83;2.63;;;;;;;8.43;100.00;98976.28;5075039;28;20183;-77
2023/04/24 04:59:20;;;;;;;2.93;2.67;;;;;;;8.37;100.00;98980.88;5075036;28;20234;-76
2023/04/24 05:01:46;;;;;;;3.80;2.50;;;;;;;8.37;100.00;98985.16;5066309;28;20228;-77
2023/04/24 05:04:11;;;;;;;3.10;2.80;;;;;;;8.32;100.00;98984.66;5072784;28;20208;-77
2023/04/24 05:06:36;;;;;;;3.77;2.43;;;;;;;8.33;100.00;98993.97;5073101;28;20250;-77
2023/04/24 05:09:03;;;;;;;3.20;3.00;;;;;;;8.32;100.00;98994.91;5085643;28;20228;-77
2023/04/24 05:11:30;;;;;;;3.07;2.77;;;;;;;8.49;100.00;99004.13;5075809;28;20527;-77
2023/04/24 05:13:56;;;;;;;6.50;2.70;;;;;;;8.39;100.00;99014.91;5072782;28;20223;-76
2023/04/24 05:16:21;;;;;;;4.30;3.27;;;;;;;8.37;100.00;99006.50;5072839;28;20657;-76
2023/04/24 05:18:46;;;;;;;3.40;2.90;;;;;;;8.47;100.00;99006.78;5072095;28;20636;-76
2023/04/24 05:21:12;;;;;;;3.43;2.80;;;;;;;8.64;100.00;99012.56;5065868;28;20238;-76
2023/04/24 05:23:37;;;;;;;3.60;2.90;;;;;;;8.71;100.00;99019.75;5061931;28;20614;-77
2023/04/24 05:26:02;;;;;;;3.30;3.00;;;;;;;8.72;100.00;99026.53;5073570;28;20177;-77
2023/04/24 05:28:28;;;;;;;3.17;2.97;;;;;;;8.86;100.00;99025.66;5086676;28;20681;-76
2023/04/24 05:30:55;;;;;;;3.17;2.87;;;;;;;8.80;100.00;99028.59;5065317;28;20227;-76
2023/04/24 05:33:20;;;;;;;3.43;2.53;;;;;;;8.83;100.00;99032.72;5073115;28;20180;-76
2023/04/24 05:35:46;;;;;;;3.37;2.70;;;;;;;8.82;100.00;99025.94;5072384;28;20758;-76
2023/04/24 05:38:12;;;;;;;3.00;2.80;;;;;;;8.79;100.00;99023.59;5072603;28;20173;-77
2023/04/24 05:40:38;;;;;;;4.70;3.13;;;;;;;8.75;100.00;99037.53;5067762;28;20277;-77
2023/04/24 05:43:03;;;;;;;4.57;3.00;;;;;;;8.94;100.00;99030.28;5072614;28;20172;-76
2023/04/24 05:45:29;;;;;;;4.43;3.00;;;;;;;9.20;100.00;99040.59;5086787;28;20180;-77
2023/04/24 05:47:54;;;;;;;4.07;3.07;;;;;;;9.32;100.00;99041.53;5092599;28;20302;-77
2023/04/24 05:50:19;;;;;;;6.20;2.73;;;;;;;9.37;100.00;99049.75;5067561;28;20305;-78
2023/04/24 05:52:45;;;;;;;4.37;3.10;;;;;;;9.32;100.00;99052.59;5087068;28;20268;-77
2023/04/24 05:55:10;;;;;;;3.07;2.77;;;;;;;9.62;100.00;99060.94;5072051;28;20184;-77
2023/04/24 05:57:36;;;;;;;5.00;3.23;;;;;;;9.94;100.00;99065.66;5071996;28;20641;-77
2023/04/24 06:00:01;;;;;;;5.33;3.70;;;;;;;9.96;100.00;99063.78;5068459;28;20192;-76
2023/04/24 06:02:27;;;;;;;5.17;3.20;;;;;;;10.07;100.00;99063.88;5046149;28;20223;-76
2023/04/24 06:04:52;;;;;;;3.57;3.27;;;;;;;10.00;100.00;99068.59;5071284;28;20196;-77
2023/04/24 06:07:18;;;;;;;4.20;3.40;;;;;;;10.06;100.00;99077.66;5070708;28;20172;-77
2023/04/24 06:09:44;;;;;;;4.10;3.60;;;;;;;10.02;100.00;99071.06;5071926;28;20173;-78
2023/04/24 06:12:10;;;;;;;4.07;3.43;;;;;;;9.94;100.00;99065.66;5063762;28;20659;-77
2023/04/24 06:14:35;;;;;;;7.77;3.00;;;;;;;9.83;100.00;99066.38;5070162;28;20183;-77
2023/04/24 06:17:00;;;;;;;3.50;3.20;;;;;;;9.57;100.00;99074.06;5071154;28;20666;-78
2023/04/24 06:19:26;;;;;;;5.77;2.87;;;;;;;9.62;100.00;99074.59;5069602;28;20577;-78
2023/04/24 06:21:51;;;;;;;3.50;3.20;;;;;;;9.57;100.00;99081.78;5063941;28;20310;-77
2023/04/24 06:24:16;;;;;;;3.20;3.00;;;;;;;9.57;100.00;99083.53;5071473;28;20288;-80
2023/04/24 06:26:42;;;;;;;3.33;2.97;;;;;;;9.60;100.00;99085.88;5068816;28;20184;-80
2023/04/24 06:29:07;;;;;;;5.97;3.33;;;;;;;9.78;100.00;99084.66;5056709;28;20205;-80
2023/04/24 06:31:36;;;;;;;3.73;3.43;;;;;;;9.88;100.00;99096.88;5057325;28;20212;-84
2023/04/24 06:34:04;;;;;;;5.90;3.53;;;;;;;9.98;100.00;99090.19;5053870;28;20204;-84
2023/04/24 06:36:30;;;;;;;4.17;3.40;;;;;;;10.15;100.00;99095.00;5054243;28;20636;-78
2023/04/24 06:38:56;;;;;;;4.00;3.60;;;;;;;10.31;100.00;99097.31;5067778;28;20173;-79
2023/04/24 06:41:21;;;;;;;3.93;3.57;;;;;;;10.13;100.00;99102.00;5047503;28;20311;-77
2023/04/24 06:43:47;;;;;;;4.20;3.80;;;;;;;10.28;100.00;99092.41;5070639;28;20330;-78
2023/04/24 06:46:13;;;;;;;4.70;4.03;;;;;;;10.54;100.00;99091.53;5070364;28;20204;-76
2023/04/24 06:48:39;;;;;;;3.73;3.43;;;;;;;10.57;100.00;99092.13;5071009;28;20275;-78
2023/04/24 06:51:04;;;;;;;3.63;3.33;;;;;;;10.38;100.00;99091.78;5070217;28;20226;-75
2023/04/24 06:53:30;;;;;;;3.90;3.30;;;;;;;10.44;100.00;99096.50;5078190;28;20545;-75
2023/04/24 06:55:55;;;;;;;3.67;3.40;;;;;;;10.41;100.00;99099.31;5069785;28;20215;-76
2023/04/24 06:58:21;;;;;;;4.50;3.17;;;;;;;10.71;100.00;99092.91;5070572;28;20242;-78
2023/04/24 07:00:46;;;;;;;3.37;2.73;;;;;;;11.56;100.00;99102.19;5047392;28;20246;-74
2023/04/24 07:03:11;;;;;;;2.90;2.70;;;;;;;11.65;100.00;99098.94;5068692;28;20524;-72
2023/04/24 07:05:37;;;;;;;4.00;3.13;;;;;;;11.67;100.00;99101.41;5068270;28;20201;-72
2023/04/24 07:08:03;;;;;;;2.87;2.67;;;;;;;11.93;100.00;99107.16;5069996;28;20220;-73
2023/04/24 07:10:29;;;;;;;2.90;2.70;;;;;;;11.92;100.00;99103.75;5064816;28;20642;-73
2023/04/24 07:12:56;;;;;;;3.33;3.03;;;;;;;11.85;100.00;99100.00;5079153;28;20176;-75
2023/04/24 07:15:22;;;;;;;3.07;2.80;;;;;;;12.64;100.00;99101.72;5069500;28;20176;-74
2023/04/24 07:17:47;;;;;;;2.83;2.60;;;;;;;13.96;96.96;99091.06;5068512;28;20234;-76
2023/04/24 07:20:14;;;;;;;3.30;2.33;;;;;;;15.69;84.81;99091.44;5059459;28;20596;-74
2023/04/24 07:22:39;;;;;;;2.63;2.40;;;;;;;15.90;77.98;99101.63;5072318;28;20188;-75
2023/04/24 07:25:05;;;;;;;2.50;2.30;;;;;;;15.38;80.43;99101.19;5066915;28;20272;-75
2023/04/24 07:27:30;;;;;;;3.40;2.83;;;;;;;15.24;80.01;99102.44;5072392;28;20523;-75
2023/04/24 07:29:56;;;;;;;2.77;2.40;;;;;;;15.89;72.63;99100.00;5069531;28;20295;-75
2023/04/24 07:32:21;;;;;;;4.23;2.70;;;;;;;16.04;70.27;99110.72;5039965;28;20277;-75
2023/04/24 07:34:46;;;;;;;2.37;2.17;;;;;;;17.41;61.97;99112.38;5070785;28;20536;-74
2023/04/24 07:37:12;;;;;;;2.63;2.20;;;;;;;17.53;61.15;99115.53;5069892;28;21588;-74
2023/04/24 07:39:37;;;;;;;2.27;2.07;;;;;;;17.27;59.72;99110.31;5069659;28;20184;-74
2023/04/24 07:42:03;;;;;;;2.20;1.93;;;;;;;16.96;60.22;99123.72;5064552;28;20216;-74
2023/04/24 07:44:28;;;;;;;4.80;2.40;;;;;;;16.41;64.82;99117.63;5069399;28;20299;-75
2023/04/24 07:46:54;;;;;;;3.53;2.40;;;;;;;15.79;69.70;99112.16;5072106;28;20243;-76
2023/04/24 07:49:19;;;;;;;5.23;2.00;;;;;;;14.81;78.57;99118.25;5070172;28;20619;-74
2023/04/24 07:51:45;;;;;;;2.80;2.27;;;;;;;15.26;80.47;99108.31;5059388;28;20228;-73
2023/04/24 07:54:10;;;;;;;2.80;2.30;;;;;;;17.54;61.66;99109.38;5067988;28;20189;-71
2023/04/24 07:56:38;;;;;;;2.47;2.27;;;;;;;19.17;51.05;99111.03;5067429;28;20173;-73
2023/04/24 07:59:05;;;;;;;3.50;2.37;;;;;;;18.68;50.34;99101.34;5086450;28;20185;-74
2023/04/24 08:01:30;;;;;;;2.23;2.03;;;;;;;19.17;49.81;99104.03;5078932;28;20231;-76
2023/04/24 08:03:56;;;;;;;3.03;2.20;;;;;;;18.43;49.80;99103.94;5068894;28;20193;-73
2023/04/24 08:06:21;;;;;;;2.40;2.10;;;;;;;19.51;48.47;99108.22;5070460;28;21459;-74
2023/04/24 08:08:47;;;;;;;2.50;2.30;;;;;;;20.25;45.67;99119.44;5086267;28;20713;-73
2023/04/24 08:11:12;;;;;;;4.40;2.20;;;;;;;20.38;44.80;99111.03;5062677;28;20227;-72
2023/04/24 08:13:37;;;;;;;2.00;1.77;;;;;;;22.12;43.41;99100.72;5069906;28;20215;-72
2023/04/24 08:16:03;;;;;;;1.93;1.83;;;;;;;22.45;40.18;99102.94;5068592;28;20245;-65
2023/04/24 08:18:28;;;;;;;2.33;1.80;;;;;;;21.30;42.66;99118.09;5069358;28;20548;-60
2023/04/24 08:20:53;;;;;;;2.07;1.87;;;;;;;19.39;45.51;99112.16;5062989;28;20685;-60
2023/04/24 08:23:18;;;;;;;2.43;2.10;;;;;;;17.66;54.24;99128.13;5079700;28;20177;-59
2023/04/24 08:25:44;;;;;;;3.63;2.27;;;;;;;16.28;57.71;99125.75;5070864;28;20180;-59
2023/04/24 08:28:10;;;;;;;2.20;2.00;;;;;;;15.36;68.76;99129.84;5070770;28;20192;-59
2023/04/24 08:30:36;;;;;;;3.67;2.20;;;;;;;14.62;75.61;99136.31;5065338;28;20224;-60
2023/04/24 08:33:01;;;;;;;2.57;2.37;;;;;;;14.23;85.97;99144.78;5082384;28;20180;-60
2023/04/24 08:35:26;;;;;;;2.30;2.10;;;;;;;13.64;92.04;99157.41;5070880;28;20601;-60
2023/04/24 08:37:53;;;;;;;2.13;2.00;;;;;;;13.51;93.31;99162.78;5070920;28;20195;-60
2023/04/24 08:40:25;;;;;;;3.03;2.20;;;;;;;13.13;96.84;99168.44;5061241;28;20188;-59
2023/04/24 08:42:54;;;;;;;2.63;2.43;;;;;;;12.86;99.27;99174.84;5076394;28;20182;-59
2023/04/24 08:45:19;;;;;;;3.20;2.10;;;;;;;12.58;100.00;99180.41;5069968;28;20252;-60
2023/04/24 08:47:45;;;;;;;5.00;2.57;;;;;;;12.83;100.00;99177.69;5073009;28;20296;-60
2023/04/24 08:50:11;;;;;;;2.60;2.30;;;;;;;13.03;99.28;99176.09;5061042;28;20284;-60
2023/04/24 08:52:37;;;;;;;2.63;2.17;;;;;;;13.44;97.66;99176.31;5082681;28;20242;-82
2023/04/24 08:55:03;;;;;;;2.50;2.30;;;;;;;13.90;94.28;99172.53;5069234;28;20215;-85
2023/04/24 08:57:29;;;;;;;2.60;2.40;;;;;;;13.79;92.62;99172.59;5079995;28;20233;-83
2023/04/24 08:59:55;;;;;;;2.57;2.33;;;;;;;13.80;93.81;99174.25;5088512;28;20192;-79
2023/04/24 09:02:22;;;;;;;2.50;2.30;;;;;;;15.47;81.59;99172.91;5076680;28;20231;-80
2023/04/24 09:04:49;;;;;;;2.20;2.00;;;;;;;16.38;73.13;99169.00;5069659;28;20274;-82
2023/04/24 09:07:16;;;;;;;3.20;2.10;;;;;;;16.50;69.73;99165.25;5077396;28;20278;-80
2023/04/24 09:09:45;;;;;;;3.00;2.70;;;;;;;15.78;77.89;99177.94;5082108;28;20207;-87
2023/04/24 09:12:11;;;;;;;2.23;2.10;;;;;;;14.65;81.58;99185.28;5061701;28;20224;-79
2023/04/24 09:14:42;;;;;;;2.73;2.50;;;;;;;13.77;90.64;99184.81;5071008;28;20181;-80
2023/04/24 09:17:08;;;;;;;3.00;2.27;;;;;;;14.35;89.46;99177.38;5074801;28;20192;-81
2023/04/24 09:19:33;;;;;;;2.60;2.10;;;;;;;15.35;82.33;99182.59;5073804;28;20212;-80
2023/04/24 09:21:58;;;;;;;2.20;1.87;;;;;;;16.30;76.35;99193.09;5059131;28;20252;-81
2023/04/24 09:24:24;;;;;;;2.50;1.90;;;;;;;15.88;73.79;99190.91;5081518;28;20180;-80
2023/04/24 09:27:01;;;;;;;3.00;2.20;;;;;;;15.34;80.70;99193.91;5091262;28;20634;-79
2023/04/24 09:29:27;;;;;;;2.60;2.03;;;;;;;14.79;82.17;99199.59;5073538;28;20200;-81
2023/04/24 09:31:52;;;;;;;3.03;2.30;;;;;;;14.37;85.97;99192.75;5065872;28;20224;-77
2023/04/24 09:34:25;;;;;;;2.60;1.67;;;;;;;14.76;85.59;99200.69;5073062;28;20199;-80
2023/04/24 09:36:51;;;;;;;3.03;1.83;;;;;;;15.99;78.41;99198.50;5074512;28;20180;-81
2023/04/24 09:39:19;;;;;;;1.90;1.77;;;;;;;15.98;74.24;99199.47;5070105;28;20556;-84
2023/04/24 09:41:59;;;;;;;1.60;1.50;;;;;;;15.09;79.01;99214.22;5061520;28;20220;-84
2023/04/24 09:44:26;;;;;;;1.80;1.70;;;;;;;15.04;82.96;99213.81;5067057;28;20191;-85
2023/04/24 09:46:54;;;;;;;1.93;1.83;;;;;;;14.17;88.08;99208.19;5074024;28;20246;-85
2023/04/24 09:49:30;;;;;;;1.70;1.60;;;;;;;14.13;90.63;99219.75;5073351;28;20189;-85
2023/04/24 09:52:07;;;;;;;2.50;1.93;;;;;;;13.54;95.59;99229.72;5055146;28;20318;-85
2023/04/24 09:54:33;;;;;;;1.60;1.47;;;;;;;12.91;97.35;99237.25;5081306;28;20191;-84
2023/04/24 09:56:59;;;;;;;5.03;2.47;;;;;;;12.50;100.00;99230.94;5081535;28;20188;-84
2023/04/24 09:59:25;;;;;;;2.00;1.90;;;;;;;12.56;100.00;99240.81;5074525;28;20267;-83
2023/04/24 10:01:51;;;;;;;2.80;2.00;;;;;;;12.68;100.00;99234.69;5079004;28;20303;-85
2023/04/24 10:04:24;;;;;;;3.63;1.90;;;;;;;12.42;100.00;99240.09;5083608;28;20208;-85
2023/04/24 10:06:51;;;;;;;2.17;1.80;;;;;;;11.90;100.00;99238.81;5076471;28;20200;-80
2023/04/24 10:09:18;;;;;;;1.60;1.50;;;;;;;12.06;100.00;99241.94;5077360;28;20247;-82
2023/04/24 10:11:46;;;;;;;3.23;1.70;;;;;;;12.15;100.00;99237.84;5083925;28;20245;-82
2023/04/24 10:14:14;;;;;;;2.40;2.23;;;;;;;12.55;100.00;99247.72;5075772;28;20238;-80
2023/04/24 10:16:40;;;;;;;1.77;1.67;;;;;;;13.05;100.00;99238.75;5072565;28;20196;-82
2023/04/24 10:19:07;;;;;;;2.27;2.07;;;;;;;13.33;100.00;99247.69;5074650;28;20212;-80
2023/04/24 10:21:33;;;;;;;3.47;1.90;;;;;;;12.92;100.00;99246.63;5064585;28;20341;-83
2023/04/24 10:24:00;;;;;;;1.77;1.67;;;;;;;12.38;100.00;99254.16;5076464;28;20299;-76
2023/04/24 10:26:27;;;;;;;1.80;1.70;;;;;;;12.30;100.00;99258.25;5072654;28;20215;-74
2023/04/24 10:28:54;;;;;;;2.13;1.87;;;;;;;11.66;100.00;99260.31;5071633;28;20192;-77
2023/04/24 10:31:20;;;;;;;2.80;2.03;;;;;;;11.62;100.00;99270.00;5084470;28;20378;-76
2023/04/24 10:33:46;;;;;;;4.00;2.43;;;;;;;11.66;100.00;99275.75;5079928;28;20181;-74
2023/04/24 10:36:13;;;;;;;2.20;2.00;;;;;;;11.68;100.00;99270.50;5071194;28;20322;-75
2023/04/24 10:38:42;;;;;;;2.73;2.13;;;;;;;11.66;100.00;99282.66;5072692;28;20177;-73
2023/04/24 10:41:16;;;;;;;2.47;2.23;;;;;;;11.74;100.00;99291.47;5084431;28;20269;-75
2023/04/24 10:43:42;;;;;;;3.07;1.80;;;;;;;12.42;100.00;99277.97;5071494;28;20322;-75
2023/04/24 10:46:09;;;;;;;3.40;2.00;;;;;;;12.79;100.00;99282.91;5070551;28;20233;-77
2023/04/24 10:48:35;;;;;;;1.73;1.60;;;;;;;13.11;100.00;99283.91;5068005;28;20259;-76
2023/04/24 10:51:01;;;;;;;3.03;1.57;;;;;;;13.13;100.00;99293.19;5063823;28;20216;-74
2023/04/24 10:53:30;;;;;;;2.40;1.60;;;;;;;13.65;100.00;99298.59;5070543;28;20208;-76
2023/04/24 10:56:07;;;;;;;1.70;1.60;;;;;;;13.48;100.00;99299.13;5077467;28;20185;-74
2023/04/24 10:58:46;;;;;;;4.43;1.50;;;;;;;13.54;100.00;99294.31;5070981;28;20177;-76
2023/04/24 11:01:31;;;;;;;1.03;1.03;;;;;;;12.77;100.00;99312.34;5040917;28;20263;-75
2023/04/24 11:03:59;;;;;;;1.10;1.00;;;;;;;12.62;100.00;99298.88;5070376;28;20630;-75
2023/04/24 11:06:37;;;;;;;1.17;1.10;;;;;;;12.38;100.00;99297.19;5067368;28;20201;-74
2023/04/24 11:09:07;;;;;;;1.30;1.20;;;;;;;12.19;100.00;99295.16;5068308;28;20316;-74
2023/04/24 11:11:33;;;;;;;2.50;1.40;;;;;;;12.53;100.00;99301.19;5058573;28;20224;-73
2023/04/24 11:13:59;;;;;;;2.27;1.70;;;;;;;12.85;100.00;99307.41;5070966;28;20547;-74
2023/04/24 11:16:35;;;;;;;1.40;1.30;;;;;;;13.21;99.63;99302.94;5061195;28;20223;-75
2023/04/24 11:19:16;;;;;;;1.60;1.50;;;;;;;13.49;97.16;99321.44;5068262;28;20255;-75
2023/04/24 11:21:47;;;;;;;1.30;1.30;;;;;;;13.60;97.97;99311.06;5055888;28;20243;-74
2023/04/24 11:24:31;;;;;;;1.20;1.10;;;;;;;13.40;100.00;99305.72;5073194;28;20658;-75